Time;durP1;ratioP1;P1;durP2;ratioP2;P2;SDS_P1;SDS_P2;PMS_P1;PMS_P2;Temp;Humidity;BMP_temperature;BMP_pressure;BME280_temperature;BME280_humidity;BME280_pressure;Samples;Min_cycle;Max_cycle;Signal;HPM_P1;HPM_P2
2023/12/31 00:01:45;;;;;;;7.20;3.22;;;7.00;59.90;;;;;;4850977;28;115489;-81
2023/12/31 00:04:12;;;;;;;7.78;3.63;;;7.00;60.20;;;;;;4851128;28;114929;-81
2023/12/31 00:06:40;;;;;;;6.15;3.20;;;6.90;60.20;;;;;;4868404;28;114519;-82
2023/12/31 00:09:08;;;;;;;6.15;3.10;;;6.90;60.40;;;;;;4851593;28;114669;-81
2023/12/31 00:11:35;;;;;;;6.47;2.92;;;6.90;60.00;;;;;;4850300;28;117724;-81
2023/12/31 00:14:02;;;;;;;5.38;2.78;;;6.90;59.90;;;;;;4868128;28;115105;-81
2023/12/31 00:16:30;;;;;;;7.57;3.10;;;6.90;59.80;;;;;;4868237;28;114621;-81
2023/12/31 00:18:57;;;;;;;6.60;3.17;;;6.90;60.00;;;;;;4851195;28;114719;-81
2023/12/31 00:21:24;;;;;;;7.05;3.10;;;6.90;60.00;;;;;;4866931;28;115278;-82
2023/12/31 00:23:51;;;;;;;8.07;4.60;;;6.80;60.10;;;;;;4867584;28;115117;-82
2023/12/31 00:26:19;;;;;;;9.95;4.05;;;6.80;59.90;;;;;;4804557;28;114779;-82
2023/12/31 00:28:46;;;;;;;8.63;3.63;;;6.80;59.80;;;;;;4835445;28;114712;-82
2023/12/31 00:31:14;;;;;;;7.63;3.78;;;6.80;59.70;;;;;;4849965;28;116977;-82
2023/12/31 00:33:41;;;;;;;7.93;3.65;;;6.80;60.00;;;;;;4835002;28;115211;-82
2023/12/31 00:36:09;;;;;;;7.57;3.60;;;6.70;59.90;;;;;;4851109;28;114779;-81
2023/12/31 00:38:36;;;;;;;6.63;3.25;;;6.70;59.90;;;;;;4868516;28;114532;-81
2023/12/31 00:41:03;;;;;;;7.57;3.25;;;6.70;59.90;;;;;;4867016;28;115702;-82
2023/12/31 00:43:31;;;;;;;7.88;4.60;;;6.70;59.70;;;;;;4834681;28;116065;-80
2023/12/31 00:45:58;;;;;;;8.88;4.65;;;6.70;59.70;;;;;;4867125;28;114563;-82
2023/12/31 00:48:26;;;;;;;10.20;4.60;;;6.60;60.30;;;;;;4820057;28;114706;-81
2023/12/31 00:50:53;;;;;;;12.68;5.90;;;6.60;60.10;;;;;;4849260;28;115461;-82
2023/12/31 00:53:20;;;;;;;12.65;6.25;;;6.50;60.10;;;;;;4834674;28;114776;-81
2023/12/31 00:55:48;;;;;;;12.18;6.95;;;6.50;60.20;;;;;;4867708;28;114507;-81
2023/12/31 00:58:18;;;;;;;14.80;7.30;;;6.50;60.40;;;;;;4867559;28;114496;-81
2023/12/31 01:00:45;;;;;;;11.68;6.53;;;6.50;60.30;;;;;;4849740;28;115302;-81
2023/12/31 01:03:14;;;;;;;10.90;6.40;;;6.40;60.50;;;;;;4834560;28;114802;-81
2023/12/31 01:05:41;;;;;;;10.40;5.28;;;6.30;60.80;;;;;;4835413;28;114621;-82
2023/12/31 01:08:10;;;;;;;8.70;4.53;;;6.30;60.80;;;;;;4850890;28;114882;-81
2023/12/31 01:10:37;;;;;;;10.07;5.18;;;6.30;60.70;;;;;;4849433;28;116482;-81
2023/12/31 01:13:04;;;;;;;7.90;3.90;;;6.30;60.80;;;;;;4849898;28;114923;-81
2023/12/31 01:15:33;;;;;;;7.97;3.70;;;6.20;60.80;;;;;;4835201;28;115231;-80
2023/12/31 01:18:01;;;;;;;8.75;3.92;;;6.20;60.60;;;;;;4855065;28;114455;-79
2023/12/31 01:20:28;;;;;;;10.63;4.10;;;6.20;60.70;;;;;;4809011;28;115173;-81
2023/12/31 01:22:56;;;;;;;9.15;4.00;;;6.20;60.60;;;;;;4867261;28;114664;-81
2023/12/31 01:25:23;;;;;;;8.40;3.97;;;6.10;60.60;;;;;;4866681;28;115387;-81
2023/12/31 01:27:55;;;;;;;10.18;5.13;;;6.10;60.60;;;;;;4850837;28;114797;-81
2023/12/31 01:30:24;;;;;;;7.60;3.83;;;6.00;60.60;;;;;;4849890;28;115231;-81
2023/12/31 01:32:51;;;;;;;7.32;3.58;;;5.90;60.70;;;;;;4849947;28;114641;-81
2023/12/31 01:35:18;;;;;;;8.57;3.97;;;5.90;60.80;;;;;;4849856;28;114562;-81
2023/12/31 01:37:47;;;;;;;9.68;4.88;;;5.80;61.00;;;;;;4835038;28;114467;-82
2023/12/31 01:40:15;;;;;;;10.55;4.88;;;5.80;61.00;;;;;;4818794;28;116903;-83
2023/12/31 01:42:44;;;;;;;10.32;4.97;;;5.80;60.90;;;;;;4848862;28;114768;-83
2023/12/31 01:45:11;;;;;;;10.35;4.68;;;5.70;60.90;;;;;;4866046;28;114345;-82
2023/12/31 01:47:39;;;;;;;12.70;5.32;;;5.70;60.90;;;;;;4850717;28;115593;-83
2023/12/31 01:50:07;;;;;;;11.52;5.90;;;5.70;61.00;;;;;;4834311;28;115095;-82
2023/12/31 01:52:34;;;;;;;12.32;6.15;;;5.60;60.90;;;;;;4849887;28;114908;-82
2023/12/31 01:55:04;;;;;;;11.05;5.03;;;5.50;61.20;;;;;;4819119;28;115529;-82
2023/12/31 01:57:33;;;;;;;10.05;5.32;;;5.40;61.40;;;;;;4835185;28;114543;-83
2023/12/31 02:00:03;;;;;;;9.65;5.40;;;5.20;61.70;;;;;;4817366;28;116267;-82
2023/12/31 02:02:40;;;;;;;11.65;5.55;;;5.20;62.00;;;;;;4836623;28;114802;-81
2023/12/31 02:05:08;;;;;;;9.25;5.50;;;5.20;62.20;;;;;;4818917;28;114800;-80
2023/12/31 02:07:36;;;;;;;11.88;6.60;;;5.20;62.10;;;;;;4849888;28;114727;-81
2023/12/31 02:10:04;;;;;;;9.48;5.05;;;5.20;62.20;;;;;;4833671;28;115048;-81
2023/12/31 02:12:32;;;;;;;10.68;6.05;;;5.20;62.60;;;;;;4849272;28;114628;-80
2023/12/31 02:14:59;;;;;;;10.55;5.60;;;5.20;62.50;;;;;;4849877;28;114651;-81
2023/12/31 02:17:26;;;;;;;15.25;7.10;;;5.20;62.40;;;;;;4850006;28;114625;-80
2023/12/31 02:19:54;;;;;;;13.82;6.22;;;5.20;62.20;;;;;;4848848;28;115046;-80
2023/12/31 02:22:21;;;;;;;13.55;6.38;;;5.20;62.30;;;;;;4865701;28;114671;-81
2023/12/31 02:24:49;;;;;;;13.80;6.55;;;5.30;62.30;;;;;;4834048;28;114534;-81
2023/12/31 02:27:17;;;;;;;12.77;6.75;;;5.20;62.10;;;;;;4849353;28;114761;-81
2023/12/31 02:29:44;;;;;;;11.75;6.57;;;5.20;62.00;;;;;;4865771;28;115132;-81
2023/12/31 02:32:11;;;;;;;11.25;6.20;;;5.20;61.90;;;;;;4865716;28;115817;-82
2023/12/31 02:34:44;;;;;;;17.35;7.10;;;5.10;62.20;;;;;;4849559;28;114518;-82
2023/12/31 02:37:12;;;;;;;10.18;5.00;;;5.00;62.20;;;;;;4866281;28;114631;-82
2023/12/31 02:39:39;;;;;;;12.88;6.22;;;5.00;62.70;;;;;;4833019;28;116525;-82
2023/12/31 02:42:07;;;;;;;14.25;5.65;;;5.00;62.60;;;;;;4864768;28;115281;-81
2023/12/31 02:44:35;;;;;;;13.15;5.13;;;5.00;62.80;;;;;;4818137;28;114538;-81
2023/12/31 02:47:02;;;;;;;8.82;4.65;;;5.00;63.00;;;;;;4848845;28;114920;-82
2023/12/31 02:49:30;;;;;;;12.82;4.97;;;5.00;63.30;;;;;;4847999;28;115169;-81
2023/12/31 02:51:58;;;;;;;10.00;4.20;;;5.10;63.20;;;;;;4832897;28;114802;-81
2023/12/31 02:54:26;;;;;;;10.07;4.63;;;5.10;63.20;;;;;;4864817;28;114409;-81
2023/12/31 02:56:53;;;;;;;7.57;4.20;;;5.10;63.00;;;;;;4865553;28;115019;-81
2023/12/31 02:59:21;;;;;;;10.40;4.32;;;5.20;63.10;;;;;;4848072;28;115201;-81
2023/12/31 03:01:49;;;;;;;7.85;3.45;;;5.20;63.00;;;;;;4852577;28;114632;-82
2023/12/31 03:04:17;;;;;;;8.40;3.83;;;5.20;63.20;;;;;;4855847;28;114423;-82
2023/12/31 03:06:47;;;;;;;9.30;3.88;;;5.10;63.20;;;;;;4850354;28;114485;-81
2023/12/31 03:09:15;;;;;;;7.82;3.35;;;5.20;63.20;;;;;;4848568;28;115139;-81
2023/12/31 03:11:42;;;;;;;7.40;3.33;;;5.10;63.40;;;;;;4848748;28;114592;-81
2023/12/31 03:14:09;;;;;;;7.45;3.58;;;5.20;63.50;;;;;;4865528;28;114741;-81
2023/12/31 03:16:37;;;;;;;6.93;3.40;;;5.20;63.50;;;;;;4849221;28;114535;-81
2023/12/31 03:19:04;;;;;;;6.63;3.72;;;5.20;63.60;;;;;;4848593;28;116474;-81
2023/12/31 03:21:32;;;;;;;6.60;3.30;;;5.20;63.50;;;;;;4848234;28;114612;-81
2023/12/31 03:23:59;;;;;;;7.45;3.58;;;5.20;63.50;;;;;;4848958;28;114830;-81
2023/12/31 03:26:29;;;;;;;7.60;3.65;;;5.20;63.20;;;;;;4832546;28;114438;-81
2023/12/31 03:28:56;;;;;;;8.32;3.83;;;5.30;63.20;;;;;;4848621;28;115608;-81
2023/12/31 03:31:24;;;;;;;7.75;3.20;;;5.30;63.00;;;;;;4848602;28;114596;-81
2023/12/31 03:33:51;;;;;;;5.22;3.05;;;5.30;63.20;;;;;;4849037;28;114659;-81
2023/12/31 03:36:20;;;;;;;7.60;3.92;;;5.30;63.10;;;;;;4833227;28;114442;-81
2023/12/31 03:38:49;;;;;;;7.43;3.85;;;5.40;63.10;;;;;;4864590;28;116117;-81
2023/12/31 03:41:16;;;;;;;8.82;3.55;;;5.30;63.30;;;;;;4832292;28;115142;-81
2023/12/31 03:43:44;;;;;;;6.20;3.60;;;5.30;63.40;;;;;;4848839;28;115118;-80
2023/12/31 03:46:11;;;;;;;8.60;3.95;;;5.30;63.60;;;;;;4848658;28;114567;-81
2023/12/31 03:48:38;;;;;;;9.30;4.07;;;5.30;63.50;;;;;;4832257;28;115160;-81
2023/12/31 03:51:06;;;;;;;8.60;4.18;;;5.40;63.40;;;;;;4847865;28;115765;-82
2023/12/31 03:53:33;;;;;;;8.27;4.20;;;5.30;63.40;;;;;;4848041;28;114534;-82
2023/12/31 03:56:01;;;;;;;7.28;3.45;;;5.30;63.40;;;;;;4848827;28;114426;-81
2023/12/31 03:58:31;;;;;;;10.57;3.95;;;5.30;63.30;;;;;;4864508;28;115206;-80
2023/12/31 04:01:02;;;;;;;9.93;4.25;;;5.30;63.40;;;;;;4832563;28;116070;-82
2023/12/31 04:03:32;;;;;;;9.65;4.07;;;5.30;63.40;;;;;;4832802;28;114706;-82
2023/12/31 04:06:02;;;;;;;8.85;4.10;;;5.20;63.60;;;;;;4850236;28;114598;-81
2023/12/31 04:08:30;;;;;;;7.53;3.80;;;5.20;63.90;;;;;;4850550;28;116886;-82
2023/12/31 04:10:57;;;;;;;7.47;3.70;;;5.20;63.90;;;;;;4850764;28;115177;-81
2023/12/31 04:13:25;;;;;;;9.02;4.13;;;5.30;64.00;;;;;;4836457;28;114808;-81
2023/12/31 04:15:52;;;;;;;8.88;4.60;;;5.30;64.00;;;;;;4851676;28;114558;-80
2023/12/31 04:18:19;;;;;;;8.10;4.35;;;5.30;64.00;;;;;;4850436;28;116360;-80
2023/12/31 04:20:48;;;;;;;7.60;4.63;;;5.30;63.90;;;;;;4867788;28;115147;-81
2023/12/31 04:23:16;;;;;;;6.68;4.32;;;5.30;64.00;;;;;;4851193;28;114733;-81
2023/12/31 04:25:43;;;;;;;6.97;3.70;;;5.20;63.90;;;;;;4850942;28;114879;-81
2023/12/31 04:28:10;;;;;;;6.75;3.72;;;5.30;64.00;;;;;;4865799;28;115111;-82
2023/12/31 04:30:40;;;;;;;8.95;4.72;;;5.30;64.20;;;;;;4834013;28;114693;-81
2023/12/31 04:33:08;;;;;;;6.88;4.13;;;5.30;64.10;;;;;;4867086;28;114604;-82
2023/12/31 04:35:35;;;;;;;7.57;4.07;;;5.30;64.10;;;;;;4819362;28;114640;-82
2023/12/31 04:38:02;;;;;;;8.65;4.18;;;5.20;64.20;;;;;;4849716;28;115849;-81
2023/12/31 04:40:30;;;;;;;7.60;4.57;;;5.20;64.20;;;;;;4849486;28;115274;-82
2023/12/31 04:42:58;;;;;;;10.18;4.88;;;5.20;64.30;;;;;;4834936;28;114358;-82
2023/12/31 04:45:25;;;;;;;8.30;4.47;;;5.20;64.20;;;;;;4875909;28;114296;-81
2023/12/31 04:47:53;;;;;;;8.10;5.13;;;5.20;64.30;;;;;;4861259;28;117196;-82
2023/12/31 04:50:20;;;;;;;7.53;4.32;;;5.20;64.30;;;;;;4849281;28;115150;-82
2023/12/31 04:52:47;;;;;;;8.07;4.40;;;5.20;64.30;;;;;;4834633;28;114718;-82
2023/12/31 04:55:16;;;;;;;7.45;4.25;;;5.20;64.40;;;;;;4850763;28;114711;-83
2023/12/31 04:57:43;;;;;;;7.35;4.30;;;5.20;64.50;;;;;;4818664;28;115184;-82
2023/12/31 05:00:12;;;;;;;8.63;5.15;;;5.20;64.60;;;;;;4833852;28;114795;-82
2023/12/31 05:02:39;;;;;;;9.68;4.53;;;5.20;64.60;;;;;;4866943;28;114396;-81
2023/12/31 05:05:07;;;;;;;8.05;4.63;;;5.20;64.80;;;;;;4867011;28;114601;-81
2023/12/31 05:07:34;;;;;;;8.00;4.57;;;5.30;64.70;;;;;;4833760;28;115210;-81
2023/12/31 05:10:02;;;;;;;11.05;4.90;;;5.30;64.60;;;;;;4865527;28;115384;-81
2023/12/31 05:12:32;;;;;;;7.88;4.28;;;5.30;64.70;;;;;;4849716;28;114652;-81
2023/12/31 05:15:02;;;;;;;11.50;4.45;;;5.30;64.80;;;;;;4866499;28;114732;-81
2023/12/31 05:17:29;;;;;;;8.50;4.53;;;5.30;64.70;;;;;;4831391;28;121026;-83
2023/12/31 05:19:57;;;;;;;8.90;4.45;;;5.30;64.50;;;;;;4848961;28;114724;-82
2023/12/31 05:22:24;;;;;;;6.78;4.25;;;5.20;64.60;;;;;;4866092;28;114404;-82
2023/12/31 05:24:52;;;;;;;8.40;4.28;;;5.20;64.50;;;;;;4849303;28;114750;-82
2023/12/31 05:27:41;;;;;;;7.97;4.55;;;5.20;64.80;;;;;;5044781;27;114728;-81
2023/12/31 05:30:10;;;;;;;8.18;4.43;;;5.20;64.70;;;;;;5006001;28;114451;-81
2023/12/31 05:32:37;;;;;;;8.48;4.80;;;5.20;64.80;;;;;;5021706;28;115122;-83
2023/12/31 05:35:08;;;;;;;7.95;4.55;;;5.20;64.70;;;;;;5004585;28;115693;-81
2023/12/31 05:37:38;;;;;;;9.68;5.13;;;5.20;64.90;;;;;;5023744;28;114365;-81
2023/12/31 05:40:06;;;;;;;7.40;4.85;;;5.10;64.80;;;;;;5005831;28;114515;-80
2023/12/31 05:42:34;;;;;;;10.75;5.32;;;5.20;64.80;;;;;;5022433;28;115489;-81
2023/12/31 05:45:05;;;;;;;8.35;4.53;;;5.20;64.90;;;;;;5022735;28;114603;-82
2023/12/31 05:47:33;;;;;;;6.78;4.05;;;5.20;64.90;;;;;;5005933;28;115072;-80
2023/12/31 05:50:14;;;;;;;8.05;4.32;;;5.10;64.80;;;;;;5008015;28;114674;-80
2023/12/31 05:52:42;;;;;;;8.45;4.20;;;5.20;64.90;;;;;;5022438;28;116086;-80
2023/12/31 05:55:09;;;;;;;8.45;4.65;;;5.20;64.80;;;;;;5022356;28;115166;-82
2023/12/31 05:57:40;;;;;;;8.68;4.20;;;5.20;64.80;;;;;;4989152;28;114522;-82
2023/12/31 06:00:09;;;;;;;6.20;4.10;;;5.20;64.90;;;;;;4989647;28;114752;-82
2023/12/31 06:02:40;;;;;;;7.20;3.85;;;5.20;64.80;;;;;;5022334;28;115076;-82
2023/12/31 06:05:08;;;;;;;8.07;3.80;;;5.10;64.70;;;;;;5004598;28;114608;-82
2023/12/31 06:07:36;;;;;;;6.72;4.00;;;5.10;64.70;;;;;;5005476;28;114514;-82
2023/12/31 06:10:04;;;;;;;6.20;3.80;;;5.00;64.90;;;;;;4989417;28;114641;-81
2023/12/31 06:12:32;;;;;;;9.63;3.97;;;4.90;64.80;;;;;;5022161;28;115489;-81
2023/12/31 06:14:59;;;;;;;7.53;3.60;;;4.90;64.80;;;;;;5021842;28;115840;-81
2023/12/31 06:17:27;;;;;;;6.55;3.85;;;4.80;64.90;;;;;;5023131;28;114587;-80
2023/12/31 06:19:54;;;;;;;7.57;3.80;;;4.80;64.90;;;;;;4988944;28;114703;-80
2023/12/31 06:22:22;;;;;;;6.63;3.75;;;4.70;65.00;;;;;;5022085;28;115409;-81
2023/12/31 06:24:49;;;;;;;7.97;4.13;;;4.70;65.10;;;;;;5021958;28;114719;-81
2023/12/31 06:27:17;;;;;;;8.60;3.67;;;4.70;65.20;;;;;;5018056;27;114772;-81
2023/12/31 06:29:44;;;;;;;5.85;3.05;;;4.70;65.20;;;;;;5008629;28;114578;-82
2023/12/31 06:32:11;;;;;;;7.75;3.92;;;4.60;65.20;;;;;;5018396;28;115501;-81
2023/12/31 06:34:39;;;;;;;8.25;4.10;;;4.60;65.20;;;;;;5016642;28;115182;-81
2023/12/31 06:37:06;;;;;;;7.97;3.60;;;4.60;65.30;;;;;;4998849;28;114864;-81
2023/12/31 06:39:33;;;;;;;8.95;4.40;;;4.60;65.40;;;;;;5005744;28;114602;-80
2023/12/31 06:42:01;;;;;;;7.07;4.40;;;4.50;65.30;;;;;;4988853;28;115076;-80
2023/12/31 06:44:31;;;;;;;8.15;4.03;;;4.50;65.30;;;;;;4988408;28;114990;-81
2023/12/31 06:46:58;;;;;;;7.10;4.50;;;4.50;65.40;;;;;;4988320;28;114396;-82
2023/12/31 06:49:26;;;;;;;6.45;4.00;;;4.40;65.40;;;;;;5005080;28;114649;-82
2023/12/31 06:51:56;;;;;;;9.05;4.00;;;4.40;65.50;;;;;;4988355;28;115116;-81
2023/12/31 06:54:23;;;;;;;10.40;5.30;;;4.40;65.60;;;;;;4987186;28;114713;-81
2023/12/31 06:56:50;;;;;;;7.47;4.50;;;4.50;65.70;;;;;;4989301;28;114622;-81
2023/12/31 06:59:17;;;;;;;8.27;4.38;;;4.60;65.70;;;;;;4989488;28;114509;-81
2023/12/31 07:01:45;;;;;;;9.40;4.43;;;4.60;65.70;;;;;;4987034;28;115098;-81
2023/12/31 07:04:13;;;;;;;6.85;3.97;;;4.70;65.70;;;;;;4986980;28;114751;-81
2023/12/31 07:06:40;;;;;;;9.45;4.40;;;4.80;65.50;;;;;;4989133;28;114475;-81
2023/12/31 07:09:09;;;;;;;6.45;4.03;;;4.80;65.20;;;;;;4971333;28;114783;-81
2023/12/31 07:11:37;;;;;;;7.05;4.00;;;4.80;65.20;;;;;;5003443;28;115253;-81
2023/12/31 07:14:04;;;;;;;7.78;4.47;;;4.70;65.40;;;;;;4987982;28;114628;-81
2023/12/31 07:16:32;;;;;;;6.35;3.70;;;4.80;65.30;;;;;;4988935;28;114505;-81
2023/12/31 07:18:59;;;;;;;8.20;4.15;;;4.80;65.30;;;;;;4987689;28;114516;-81
2023/12/31 07:21:27;;;;;;;8.63;5.10;;;4.80;65.30;;;;;;5002152;28;115931;-82
2023/12/31 07:23:58;;;;;;;9.18;4.20;;;4.90;65.30;;;;;;4985513;28;114756;-83
2023/12/31 07:26:26;;;;;;;8.57;4.68;;;4.90;65.30;;;;;;4971261;28;114693;-83
2023/12/31 07:28:54;;;;;;;7.93;4.28;;;5.00;65.20;;;;;;4966870;28;114553;-81
2023/12/31 07:31:37;;;;;;;9.82;4.68;;;5.10;65.00;;;;;;4966899;28;116943;-81
2023/12/31 07:34:07;;;;;;;9.15;4.43;;;5.10;65.00;;;;;;4967095;28;117274;-81
2023/12/31 07:36:35;;;;;;;7.00;4.07;;;5.10;65.00;;;;;;4968812;28;114600;-81
2023/12/31 07:39:03;;;;;;;7.22;4.03;;;5.20;64.70;;;;;;4993805;28;114900;-82
2023/12/31 07:41:32;;;;;;;8.57;3.97;;;5.20;64.60;;;;;;4966074;28;116206;-82
2023/12/31 07:44:00;;;;;;;8.40;3.95;;;5.20;64.70;;;;;;4949966;28;114654;-81
2023/12/31 07:46:28;;;;;;;6.63;3.70;;;5.20;64.90;;;;;;4993929;28;114592;-82
2023/12/31 07:48:56;;;;;;;9.05;3.75;;;5.30;65.10;;;;;;4985383;28;114667;-81
2023/12/31 07:51:24;;;;;;;9.60;3.90;;;5.30;64.80;;;;;;4982874;28;115070;-81
2023/12/31 07:53:52;;;;;;;7.90;3.70;;;5.40;64.20;;;;;;4967534;28;114691;-81
2023/12/31 07:56:19;;;;;;;6.05;2.95;;;5.40;64.30;;;;;;4951171;28;114588;-81
2023/12/31 07:58:46;;;;;;;5.25;2.75;;;5.40;64.20;;;;;;4951304;28;114491;-81
2023/12/31 08:01:14;;;;;;;7.03;3.00;;;5.50;63.90;;;;;;4950772;28;116311;-80
2023/12/31 08:03:41;;;;;;;7.03;3.35;;;5.50;63.80;;;;;;4968356;28;115922;-81
2023/12/31 08:06:09;;;;;;;5.22;2.90;;;5.50;64.00;;;;;;4968139;28;114686;-82
2023/12/31 08:08:37;;;;;;;5.20;2.80;;;5.60;63.90;;;;;;4968733;28;114705;-81
2023/12/31 08:11:04;;;;;;;7.85;3.25;;;5.70;64.00;;;;;;4982571;28;115060;-81
2023/12/31 08:13:32;;;;;;;8.02;2.80;;;5.70;64.00;;;;;;5000047;28;114530;-81
2023/12/31 08:16:00;;;;;;;4.70;2.60;;;5.80;63.20;;;;;;4991959;28;114553;-82
2023/12/31 08:18:27;;;;;;;6.95;3.45;;;5.80;62.60;;;;;;4926900;28;114552;-82
2023/12/31 08:20:55;;;;;;;8.63;3.53;;;5.80;62.40;;;;;;4964236;28;115192;-81
2023/12/31 08:23:22;;;;;;;7.32;3.70;;;5.80;62.70;;;;;;4967678;28;114706;-81
2023/12/31 08:25:49;;;;;;;7.03;3.90;;;5.80;62.50;;;;;;4965940;28;114602;-81
2023/12/31 08:28:17;;;;;;;7.57;4.07;;;5.90;62.40;;;;;;4968060;28;114673;-80
2023/12/31 08:30:44;;;;;;;9.70;3.50;;;5.90;62.40;;;;;;4982555;28;115556;-81
2023/12/31 08:33:11;;;;;;;6.85;3.83;;;6.00;62.30;;;;;;4963275;28;117691;-81
2023/12/31 08:35:40;;;;;;;7.63;4.13;;;6.10;62.10;;;;;;4974565;28;117582;-81
2023/12/31 08:38:08;;;;;;;8.05;3.80;;;6.20;62.00;;;;;;4966818;28;114619;-80
2023/12/31 08:40:38;;;;;;;7.07;3.80;;;6.20;61.60;;;;;;4965747;28;116753;-81
2023/12/31 08:43:05;;;;;;;8.82;4.40;;;6.20;61.60;;;;;;4966707;28;117249;-81
2023/12/31 08:45:33;;;;;;;6.38;3.70;;;6.30;61.10;;;;;;4966423;28;114375;-82
2023/12/31 08:48:01;;;;;;;7.10;3.72;;;6.20;61.10;;;;;;4968322;28;114384;-81
2023/12/31 08:50:29;;;;;;;10.15;3.78;;;6.20;60.60;;;;;;4967069;28;114992;-81
2023/12/31 08:52:56;;;;;;;6.72;3.45;;;6.20;61.00;;;;;;4966582;28;114694;-82
2023/12/31 08:55:28;;;;;;;6.13;3.22;;;6.20;60.70;;;;;;4967716;28;114580;-82
2023/12/31 08:57:56;;;;;;;6.70;3.38;;;6.20;60.70;;;;;;4966495;28;114580;-82
2023/12/31 09:00:23;;;;;;;7.53;3.60;;;6.20;60.30;;;;;;4966474;28;118600;-83
2023/12/31 09:02:51;;;;;;;7.45;3.70;;;6.30;60.30;;;;;;4972270;28;114653;-81
2023/12/31 09:05:18;;;;;;;8.30;4.30;;;6.40;60.50;;;;;;4984932;28;114661;-83
2023/12/31 09:07:46;;;;;;;6.88;3.80;;;6.50;60.30;;;;;;4987052;28;114603;-83
2023/12/31 09:10:15;;;;;;;6.78;3.80;;;6.60;60.30;;;;;;4977171;28;115249;-81
2023/12/31 09:12:42;;;;;;;6.78;3.55;;;6.70;60.40;;;;;;4987889;28;114738;-82
2023/12/31 09:15:11;;;;;;;9.98;4.43;;;6.80;60.00;;;;;;4970305;28;115538;-81
2023/12/31 09:17:39;;;;;;;6.80;3.72;;;6.90;60.30;;;;;;4969516;28;114897;-82
2023/12/31 09:20:06;;;;;;;8.15;4.18;;;7.10;60.30;;;;;;4965997;28;114890;-82
2023/12/31 09:22:34;;;;;;;8.85;4.40;;;7.30;60.10;;;;;;4966598;28;114630;-82
2023/12/31 09:25:06;;;;;;;5.95;2.90;;;7.40;60.10;;;;;;4947093;28;115783;-84
2023/12/31 09:27:35;;;;;;;5.97;3.35;;;7.60;59.30;;;;;;4953046;28;114540;-82
2023/12/31 09:30:02;;;;;;;6.28;3.22;;;7.60;58.80;;;;;;4982520;28;115233;-81
2023/12/31 09:32:30;;;;;;;5.38;2.90;;;7.70;58.40;;;;;;4967896;28;116352;-82
2023/12/31 09:34:58;;;;;;;7.38;3.50;;;7.70;58.40;;;;;;4985234;28;114495;-83
2023/12/31 09:37:26;;;;;;;5.65;2.80;;;7.70;58.50;;;;;;4984986;28;114551;-83
2023/12/31 09:39:54;;;;;;;4.22;2.53;;;7.70;58.30;;;;;;4983914;28;115332;-83
2023/12/31 09:42:50;;;;;;;6.50;3.33;;;7.80;57.90;;;;;;4983985;28;114709;-82
2023/12/31 09:45:23;;;;;;;5.40;2.90;;;7.80;58.30;;;;;;4985884;28;114745;-82
2023/12/31 09:47:51;;;;;;;5.82;3.10;;;7.80;58.30;;;;;;4967996;28;114493;-81
2023/12/31 09:50:19;;;;;;;5.75;2.72;;;7.80;58.20;;;;;;4963603;28;115002;-81
2023/12/31 09:52:59;;;;;;;6.05;3.50;;;7.80;58.00;;;;;;4968956;28;114670;-83
2023/12/31 09:55:34;;;;;;;7.15;4.00;;;7.90;58.30;;;;;;4954450;28;115287;-82
2023/12/31 09:58:02;;;;;;;5.55;3.33;;;8.00;58.00;;;;;;4970030;28;115248;-82
2023/12/31 10:00:30;;;;;;;6.30;2.97;;;8.10;58.40;;;;;;4982611;28;114549;-82
2023/12/31 10:02:57;;;;;;;5.93;3.67;;;8.10;58.30;;;;;;4985994;28;114718;-82
2023/12/31 10:05:26;;;;;;;6.45;3.58;;;8.20;58.30;;;;;;5002567;28;114742;-82
2023/12/31 10:07:54;;;;;;;6.18;4.05;;;8.30;57.60;;;;;;4992917;28;115071;-81
2023/12/31 10:10:22;;;;;;;7.03;3.50;;;8.20;57.60;;;;;;4986250;28;115026;-80
2023/12/31 10:12:50;;;;;;;5.93;3.65;;;8.20;57.60;;;;;;4971427;28;114677;-81
2023/12/31 10:15:17;;;;;;;6.35;3.55;;;8.30;57.80;;;;;;5002746;28;114900;-81
2023/12/31 10:17:45;;;;;;;7.70;4.00;;;8.40;57.70;;;;;;4992678;28;114382;-82
2023/12/31 10:20:12;;;;;;;6.75;3.90;;;8.50;57.70;;;;;;5011584;28;116489;-82
2023/12/31 10:22:40;;;;;;;9.25;4.05;;;8.60;57.70;;;;;;4989285;28;114632;-81
2023/12/31 10:25:14;;;;;;;5.25;3.22;;;8.60;57.30;;;;;;4989687;28;114617;-81
2023/12/31 10:27:47;;;;;;;7.90;4.20;;;8.70;57.00;;;;;;5004019;28;114604;-81
2023/12/31 10:30:15;;;;;;;7.70;3.90;;;8.70;57.10;;;;;;5003429;28;118456;-82
2023/12/31 10:32:43;;;;;;;7.50;3.75;;;8.60;57.50;;;;;;4987254;28;115243;-81
2023/12/31 10:35:10;;;;;;;7.75;3.78;;;8.70;57.40;;;;;;5004287;28;115298;-82
2023/12/31 10:37:39;;;;;;;6.50;3.83;;;8.70;57.30;;;;;;4988253;28;114475;-82
2023/12/31 10:40:20;;;;;;;6.20;4.25;;;8.80;57.20;;;;;;4988203;28;115108;-80
2023/12/31 10:42:50;;;;;;;7.47;4.00;;;8.90;57.00;;;;;;4971005;28;114543;-82
2023/12/31 10:45:19;;;;;;;8.27;4.07;;;8.90;57.10;;;;;;4971507;28;114720;-82
2023/12/31 10:47:53;;;;;;;7.70;4.28;;;9.00;57.10;;;;;;4987383;28;114749;-82
2023/12/31 10:50:25;;;;;;;7.72;4.65;;;9.00;56.90;;;;;;4987337;28;116712;-81
2023/12/31 10:52:56;;;;;;;6.38;4.03;;;9.00;57.10;;;;;;4986697;28;116082;-82
2023/12/31 10:55:29;;;;;;;7.80;4.07;;;9.10;56.70;;;;;;4958037;28;114667;-83
2023/12/31 10:57:59;;;;;;;8.43;4.30;;;9.10;56.80;;;;;;4988096;28;114624;-82
2023/12/31 11:00:29;;;;;;;7.93;5.03;;;9.10;56.90;;;;;;4986493;28;115193;-83
2023/12/31 11:02:58;;;;;;;10.05;4.95;;;9.10;56.70;;;;;;4987902;28;115207;-82
2023/12/31 11:05:26;;;;;;;8.35;4.40;;;9.20;57.00;;;;;;4970774;28;114453;-82
2023/12/31 11:07:53;;;;;;;8.13;4.53;;;9.20;56.70;;;;;;4971111;28;114810;-81
2023/12/31 11:10:20;;;;;;;8.05;4.60;;;9.20;56.50;;;;;;4969981;28;119247;-82
2023/12/31 11:12:48;;;;;;;6.85;4.40;;;9.20;56.50;;;;;;4986554;28;114598;-82
2023/12/31 11:15:18;;;;;;;8.23;4.43;;;9.20;56.50;;;;;;4954829;28;114725;-82
2023/12/31 11:18:29;;;;;;;7.25;4.43;;;9.20;56.40;;;;;;4972098;28;114613;-82
2023/12/31 11:21:19;;;;;;;6.85;4.07;;;9.20;56.50;;;;;;4987205;28;115090;-81
2023/12/31 11:24:06;;;;;;;7.45;4.32;;;9.20;56.70;;;;;;4969922;28;114789;-81
2023/12/31 11:26:34;;;;;;;7.60;4.20;;;9.20;56.80;;;;;;4962275;28;115196;-82
2023/12/31 11:29:02;;;;;;;7.93;4.25;;;9.20;56.80;;;;;;5007970;28;114865;-81
2023/12/31 11:31:33;;;;;;;8.00;5.05;;;9.20;56.70;;;;;;4989588;28;115897;-81
2023/12/31 11:34:00;;;;;;;9.40;4.30;;;9.20;56.50;;;;;;5006065;28;114652;-83
2023/12/31 11:36:29;;;;;;;7.28;4.65;;;9.20;56.50;;;;;;5009474;28;114476;-84
2023/12/31 11:38:57;;;;;;;8.15;4.10;;;9.20;56.60;;;;;;5009846;28;114459;-81
2023/12/31 11:41:32;;;;;;;8.57;4.07;;;9.20;56.50;;;;;;5005915;28;115776;-81
2023/12/31 11:44:03;;;;;;;7.82;3.60;;;9.20;56.10;;;;;;4978838;28;114581;-81
2023/12/31 11:46:33;;;;;;;7.18;4.28;;;9.20;56.40;;;;;;5012182;28;114637;-81
2023/12/31 11:49:01;;;;;;;9.00;4.20;;;9.20;56.60;;;;;;5008105;28;114472;-82
2023/12/31 11:51:31;;;;;;;7.10;4.28;;;9.20;56.50;;;;;;5005965;28;115141;-83
2023/12/31 11:53:59;;;;;;;7.28;4.65;;;9.10;56.60;;;;;;4989591;28;114971;-82
2023/12/31 11:56:30;;;;;;;7.05;4.55;;;9.10;56.60;;;;;;5008062;28;114825;-82
2023/12/31 11:58:57;;;;;;;7.88;4.80;;;9.00;56.70;;;;;;5007022;28;114678;-82
2023/12/31 12:01:24;;;;;;;8.98;5.45;;;8.90;57.00;;;;;;5005809;28;115121;-82
2023/12/31 12:03:52;;;;;;;8.23;5.30;;;9.00;57.00;;;;;;5005660;28;114612;-82
2023/12/31 12:06:21;;;;;;;8.23;5.53;;;8.90;57.40;;;;;;5006787;28;114752;-82
2023/12/31 12:08:54;;;;;;;10.95;5.63;;;9.00;57.50;;;;;;4992480;28;114570;-83
2023/12/31 12:11:23;;;;;;;9.55;5.28;;;9.10;57.80;;;;;;5028845;28;115276;-82
2023/12/31 12:13:50;;;;;;;7.47;4.60;;;9.10;57.50;;;;;;5013193;28;114538;-82
2023/12/31 12:16:18;;;;;;;7.18;4.45;;;9.10;57.40;;;;;;5009454;28;114506;-84
2023/12/31 12:18:46;;;;;;;8.07;4.40;;;9.20;57.40;;;;;;5008160;28;114911;-82
2023/12/31 12:21:13;;;;;;;7.30;4.72;;;9.20;57.40;;;;;;5006665;28;115187;-83
2023/12/31 12:23:40;;;;;;;8.05;4.60;;;9.20;57.30;;;;;;5006763;28;115524;-81
2023/12/31 12:26:08;;;;;;;8.50;4.60;;;9.20;57.40;;;;;;5005859;28;114535;-82
2023/12/31 12:28:35;;;;;;;7.10;4.20;;;9.20;57.40;;;;;;5006397;28;115298;-83
2023/12/31 12:31:06;;;;;;;6.15;4.22;;;9.20;57.20;;;;;;5004960;28;115534;-83
2023/12/31 12:33:34;;;;;;;6.78;3.90;;;9.20;57.40;;;;;;5022353;28;115238;-82
2023/12/31 12:36:03;;;;;;;8.70;4.88;;;9.20;57.20;;;;;;4989070;28;114762;-82
2023/12/31 12:38:30;;;;;;;10.07;5.82;;;9.20;57.20;;;;;;5006133;28;115330;-83
2023/12/31 12:41:01;;;;;;;10.82;5.95;;;9.30;57.10;;;;;;5004433;28;116411;-83
2023/12/31 12:43:32;;;;;;;9.27;5.15;;;9.30;57.40;;;;;;4988503;28;117610;-83
2023/12/31 12:46:06;;;;;;;10.50;6.28;;;9.30;57.50;;;;;;5022516;28;114653;-82
2023/12/31 12:48:33;;;;;;;9.32;5.50;;;9.30;57.50;;;;;;5007132;28;114699;-83
2023/12/31 12:51:01;;;;;;;8.35;5.00;;;9.30;57.60;;;;;;5006130;28;115633;-82
2023/12/31 12:53:28;;;;;;;8.77;5.25;;;9.30;57.60;;;;;;5021725;28;114809;-83